Boynton Beach, Florida
Current Conditions -  °F | °C
As of 6:53 PM on Wednesday 28 Jan 2015 (Local Time) from KPBI Reporting Station
Few Clouds Few Clouds  
Wind Chill: 14°   Ceiling: Unl
Heat Index: 14°   Visibility: 10mi
Dew Point:   Wind: 10mph
Humidity: 47%   Direction: 340°NNW
Pressure: 30.18"   Gusts: NA
Location:  26.53°N, 80.06°W
Report Text: KPBI 282353Z 34009KT 10SM FEW015 FEW040 14/03 A3018 RMK AO2 SLP219 FU FEW015 T01440033 10200 20144 53019
Loading
Personal Weather Stations






























Interactive Weather Map New forecast layout! Learn more

10-Day Weather Forecast

Advertisements
Track Severe Weather on mobile